Providence, Rhode Island
Traffic Map
Current Weather Conditions
Providence, Rhode Island
Broken Clouds
Broken Clouds
42°
Feels Like: 34°
Wind Chill: 34° Ceiling: 3600
Heat Index: 42° Visibility: 10mi
Dew Point: 27° Wind: 16mph
Humidity: 55% Direction: 300° (WNW)
Pressure: 29.82in Gusts: 29mph
Raw Report DataKPVD 181651Z 30014G25KT 10SM BKN036 06/M03 A2982 RMK AO2 PK WND 29026/1633 SLP099 T00561028 $
Traffic Incident Summary
Active as of:
Severity:
Category:
InformationThere was an issue retrieving the traffic information for this location. Please try a different location or try again shortly.
Advertisements
Track Severe Weather on mobile